Terminal Aerodrome Forecast
Issued by NWS

Home | Current Version | Previous Version | Text Only | Print | Product List | Glossary On
Versions: 1 2 3 4 5 6 7 8 9 10 11 12 13 14 15
000
FTUS44 KLIX 270638 AAA
TAFHUM
TAF AMD
KHUM 270638Z 2707/2806 10008KT P6SM VCSH OVC025
     FM271100 15009KT 6SM -SHRA VCTS BKN035CB
      TEMPO 2711/2715 2SM TSRA BKN020CB
     FM271500 16011KT P6SM VCSH OVC035
      TEMPO 2715/2719 4SM TSRA OVC025CB
     FM272300 16008KT P6SM SCT008=

USA.gov is the U.S. government's official web portal to all federal, state and local government web resources and services.